Bookmark and Share
Track history (hours):
 

F/V Jeremi Simon

Last reported at 2014-Apr-13 04:11 UTC. Time now 2014-Apr-16 10:33 UTC.
Position N 46°43' W 002°09'.

Length 20 m.

Type: Other ship. MMSI: 227415000.

NotesDate/timePositionNaut miles runAvg speedWind from/ knotsBaromVisibWave heightAir tempDewpointWater temp
2014-Apr-13 04:11N 46°43' W 002°09'610.1
2014-Apr-13 03:33N 46°41' W 001°60'2 0.0
2014-Apr-11 01:03N 46°42' W 001°57'3 6.6
2014-Apr-11 00:33N 46°39' W 001°56'10 9.9
2014-Apr-10 23:33N 46°29' W 001°51'3 2.8
2014-Apr-10 22:33N 46°30' W 001°47'0 0.0
2014-Apr-10 21:33N 46°30' W 001°47'2 1.8
2014-Apr-10 20:33N 46°28' W 001°49'1010.3
2014-Apr-10 19:33N 46°31' W 002°03'1010.3
2014-Apr-10 18:34N 46°35' W 002°17'9 0.2
2014-Apr-09 03:26N 46°44' W 002°15'910.5
2014-Apr-09 02:34N 46°41' W 002°02'4 0.2
2014-Apr-08 06:20N 46°42' W 001°57'6 7.5
2014-Apr-08 05:33N 46°36' W 001°55'9 8.9
2014-Apr-08 04:33N 46°29' W 001°48'2 1.6
2014-Apr-08 03:34N 46°30' W 001°47'0 0.0
2014-Apr-08 02:34N 46°30' W 001°47'0 0.0
2014-Apr-08 01:33N 46°30' W 001°47'0 0.0
2014-Apr-08 00:33N 46°30' W 001°47'0 0.0
2014-Apr-07 23:34N 46°30' W 001°47'0 0.0
2014-Apr-07 22:34N 46°30' W 001°47'0 0.0
2014-Apr-07 21:34N 46°30' W 001°47'7 6.9
2014-Apr-07 20:34N 46°30' W 001°57'  
2014-Apr-05 04:29N 46°42' W 002°07'7 7.9
2014-Apr-05 03:34N 46°42' W 001°57'  

Dump ship's entire track history

sailing weather and tide predictions

F/V Jeremi Simon — FHAF — position and weather